createdAt,value
2022-12-01T00:01:35.713Z,101637.72
2022-12-01T00:04:03.624Z,101636.84
2022-12-01T00:06:31.644Z,101639.69
2022-12-01T00:09:20.262Z,101635.69
2022-12-01T00:11:48.947Z,101634.00
2022-12-01T00:14:16.859Z,101643.25
2022-12-01T00:16:46.207Z,101635.44
2022-12-01T00:19:14.072Z,101638.81
2022-12-01T00:21:41.765Z,101634.53
2022-12-01T00:24:11.840Z,101631.53
2022-12-01T00:26:39.765Z,101632.59
2022-12-01T00:29:09.029Z,101633.66
2022-12-01T00:31:37.033Z,101642.00
2022-12-01T00:34:11.155Z,101637.38
2022-12-01T00:36:39.630Z,101638.09
2022-12-01T00:39:08.467Z,101634.81
2022-12-01T00:41:36.212Z,101633.47
2022-12-01T00:44:04.634Z,101627.44
2022-12-01T00:46:32.383Z,101631.63
2022-12-01T00:49:00.165Z,101637.94
2022-12-01T00:51:29.342Z,101631.38
2022-12-01T00:53:57.768Z,101636.72
2022-12-01T00:56:25.521Z,101633.22
2022-12-01T00:58:53.293Z,101635.34
2022-12-01T01:01:21.249Z,101642.91
2022-12-01T01:03:49.181Z,101640.97
2022-12-01T01:06:17.134Z,101651.81
2022-12-01T01:08:47.507Z,101640.44
2022-12-01T01:11:15.284Z,101647.19
2022-12-01T01:13:43.088Z,101649.50
2022-12-01T01:16:16.250Z,101646.28
2022-12-01T01:18:44.118Z,101645.03
2022-12-01T01:21:15.547Z,101645.50
2022-12-01T01:23:43.480Z,101643.63
2022-12-01T01:26:17.608Z,101648.72
2022-12-01T01:28:46.335Z,101648.44
2022-12-01T01:31:17.936Z,101648.63
2022-12-01T01:33:46.326Z,101648.63
2022-12-01T01:36:15.765Z,101651.81
2022-12-01T01:38:44.103Z,101652.34
2022-12-01T01:41:14.193Z,101657.06
2022-12-01T01:43:46.070Z,101656.59
2022-12-01T01:46:17.274Z,101659.19
2022-12-01T01:48:50.914Z,101661.59
2022-12-01T01:51:24.545Z,101661.06
2022-12-01T01:53:58.714Z,101658.13
2022-12-01T01:56:29.140Z,101659.09
2022-12-01T01:58:59.086Z,101659.25
2022-12-01T02:01:26.938Z,101654.50
2022-12-01T02:03:56.008Z,101655.75
2022-12-01T02:06:24.660Z,101657.16
2022-12-01T02:08:52.519Z,101657.59
2022-12-01T02:11:55.880Z,101655.19
2022-12-01T02:14:56.990Z,101657.34
2022-12-01T02:17:41.860Z,101657.16
2022-12-01T02:20:46.978Z,101659.09
2022-12-01T02:23:51.409Z,101656.63
2022-12-01T02:26:42.497Z,101659.00
2022-12-01T02:29:53.753Z,101659.81
2022-12-01T02:32:34.711Z,101658.75
2022-12-01T02:35:16.449Z,101665.31
2022-12-01T02:37:55.118Z,101658.22
2022-12-01T02:40:30.515Z,101661.59
2022-12-01T02:43:08.354Z,101651.44
2022-12-01T02:45:46.415Z,101653.50
2022-12-01T02:48:26.655Z,101659.81
2022-12-01T02:51:01.530Z,101656.25
2022-12-01T02:53:29.771Z,101653.78
2022-12-01T02:55:59.451Z,101653.41
2022-12-01T02:58:27.243Z,101656.81
2022-12-01T03:01:18.131Z,101652.72
2022-12-01T03:04:08.966Z,101653.06
2022-12-01T03:06:52.321Z,101653.25
2022-12-01T03:09:37.705Z,101652.34
2022-12-01T03:12:19.225Z,101654.47
2022-12-01T03:15:03.194Z,101652.19
2022-12-01T03:17:38.957Z,101657.13
2022-12-01T03:20:16.262Z,101662.09
2022-12-01T03:22:51.858Z,101659.28
2022-12-01T03:25:24.794Z,101650.47
2022-12-01T03:28:20.298Z,101642.66
2022-12-01T03:30:48.530Z,101647.19
2022-12-01T03:33:29.717Z,101648.00
2022-12-01T03:36:08.852Z,101642.03
2022-12-01T03:38:40.102Z,101649.22
2022-12-01T03:41:14.703Z,101644.88
2022-12-01T03:43:52.723Z,101648.41
2022-12-01T03:46:36.126Z,101649.31
2022-12-01T03:49:05.679Z,101655.38
2022-12-01T03:51:49.574Z,101652.63
2022-12-01T03:54:26.745Z,101648.81
2022-12-01T04:24:26.340Z,101669.41
2022-12-01T04:30:33.964Z,101677.16
2022-12-01T04:33:01.699Z,101677.75
2022-12-01T04:35:29.439Z,101673.81
2022-12-01T04:37:57.251Z,101670.66
2022-12-01T04:40:26.429Z,101666.63
2022-12-01T04:42:54.121Z,101664.06
2022-12-01T04:45:22.076Z,101664.44
2022-12-01T04:47:52.506Z,101664.97
2022-12-01T04:50:20.240Z,101663.91
2022-12-01T04:52:48.058Z,101655.78
2022-12-01T04:55:15.973Z,101663.47
2022-12-01T04:57:45.021Z,101661.31
2022-12-01T05:00:14.544Z,101659.19
2022-12-01T05:02:43.585Z,101655.19
2022-12-01T05:05:12.046Z,101656.59
2022-12-01T05:07:40.588Z,101658.06
2022-12-01T05:10:09.397Z,101662.63
2022-12-01T05:12:37.358Z,101657.66
2022-12-01T05:15:08.307Z,101666.56
2022-12-01T05:17:37.292Z,101659.81
2022-12-01T05:20:26.383Z,101655.78
2022-12-01T05:23:05.263Z,101659.97
2022-12-01T05:25:34.869Z,101664.06
2022-12-01T05:28:02.734Z,101667.63
2022-12-01T05:30:31.757Z,101667.63
2022-12-01T05:32:59.936Z,101670.94
2022-12-01T05:35:27.676Z,101668.16
2022-12-01T05:37:55.493Z,101663.53
2022-12-01T05:40:23.335Z,101672.06
2022-12-01T05:42:51.051Z,101675.94
2022-12-01T05:45:19.074Z,101674.25
2022-12-01T05:47:48.296Z,101674.53
2022-12-01T05:50:16.303Z,101679.69
2022-12-01T05:52:44.050Z,101671.88
2022-12-01T05:55:11.871Z,101682.72
2022-12-01T05:57:39.642Z,101682.38
2022-12-01T06:00:09.454Z,101681.59
2022-12-01T06:02:41.561Z,101683.00
2022-12-01T06:05:11.198Z,101679.31
2022-12-01T06:07:40.260Z,101684.13
2022-12-01T06:10:10.018Z,101678.25
2022-12-01T06:12:38.662Z,101678.63
2022-12-01T06:15:08.389Z,101679.03
2022-12-01T06:17:40.197Z,101678.25
2022-12-01T06:20:12.108Z,101683.31
2022-12-01T06:22:39.986Z,101684.50
2022-12-01T06:25:09.516Z,101679.44
2022-12-01T06:27:37.342Z,101683.94
2022-12-01T06:30:07.066Z,101682.72
2022-12-01T06:32:34.943Z,101684.66
2022-12-01T06:35:03.151Z,101680.03
2022-12-01T06:37:32.379Z,101685.28
2022-12-01T06:40:00.116Z,101684.50
2022-12-01T06:42:37.180Z,101693.56
2022-12-01T06:45:18.240Z,101689.63
2022-12-01T06:47:48.364Z,101694.13
2022-12-01T06:50:16.370Z,101690.91
2022-12-01T06:52:45.660Z,101691.44
2022-12-01T06:55:14.245Z,101698.72
2022-12-01T06:57:43.424Z,101697.38
2022-12-01T07:00:13.616Z,101699.34
2022-12-01T07:02:42.181Z,101699.75
2022-12-01T07:05:13.589Z,101700.94
2022-12-01T07:07:41.364Z,101701.28
2022-12-01T07:10:14.266Z,101701.75
2022-12-01T07:12:42.044Z,101704.19
2022-12-01T07:15:11.040Z,101709.25
2022-12-01T07:17:38.798Z,101709.53
2022-12-01T07:20:10.136Z,101709.00
2022-12-01T07:22:39.558Z,101714.69
2022-12-01T07:25:08.171Z,101718.03
2022-12-01T07:27:37.354Z,101717.06
2022-12-01T07:30:07.210Z,101709.16
2022-12-01T07:32:35.059Z,101718.03
2022-12-01T07:35:02.899Z,101721.72
2022-12-01T07:37:30.650Z,101719.03
2022-12-01T07:39:58.533Z,101716.81
2022-12-01T07:42:26.242Z,101717.66
2022-12-01T07:44:55.371Z,101723.72
2022-12-01T07:47:23.237Z,101716.09
2022-12-01T07:49:51.277Z,101726.38
2022-12-01T07:52:19.365Z,101719.59
2022-12-01T07:54:47.136Z,101723.44
2022-12-01T07:57:14.907Z,101728.91
2022-12-01T07:59:42.618Z,101732.09
2022-12-01T08:02:12.466Z,101729.34
2022-12-01T08:04:40.407Z,101731.72
2022-12-01T08:07:08.229Z,101736.66
2022-12-01T08:09:36.224Z,101730.34
2022-12-01T08:12:04.608Z,101737.38
2022-12-01T08:14:32.340Z,101730.28
2022-12-01T08:16:59.991Z,101740.00
2022-12-01T08:19:29.232Z,101735.97
2022-12-01T08:21:57.332Z,101742.19
2022-12-01T08:24:25.580Z,101741.09
2022-12-01T08:26:53.431Z,101741.50
2022-12-01T08:29:21.211Z,101749.41
2022-12-01T08:31:48.991Z,101743.75
2022-12-01T08:34:16.839Z,101752.19
2022-12-01T08:36:46.099Z,101751.41
2022-12-01T08:39:14.169Z,101759.25
2022-12-01T08:41:42.206Z,101761.72
2022-12-01T08:44:10.798Z,101766.03
2022-12-01T08:46:38.735Z,101763.16
2022-12-01T08:49:07.158Z,101766.59
2022-12-01T08:51:39.951Z,101770.66
2022-12-01T08:54:18.688Z,101761.75
2022-12-01T08:56:46.641Z,101764.03
2022-12-01T08:59:14.466Z,101765.84
2022-12-01T09:01:54.355Z,101760.81
2022-12-01T09:04:25.305Z,101757.22
2022-12-01T09:06:55.888Z,101753.19
2022-12-01T09:09:28.256Z,101756.69
2022-12-01T09:11:56.893Z,101756.50
2022-12-01T09:14:24.695Z,101757.81
2022-12-01T09:16:52.732Z,101763.09
2022-12-01T09:19:24.776Z,101757.94
2022-12-01T09:21:53.259Z,101755.59
2022-12-01T09:24:21.279Z,101766.03
2022-12-01T09:26:50.696Z,101759.16
2022-12-01T09:29:18.534Z,101763.44
2022-12-01T09:31:46.480Z,101752.78
2022-12-01T09:34:17.974Z,101759.34
2022-12-01T09:40:32.544Z,101760.56
2022-12-01T09:43:36.541Z,101760.03
2022-12-01T09:46:11.896Z,101755.03
2022-12-01T09:48:44.221Z,101768.47
2022-12-01T09:51:15.356Z,101765.91
2022-12-01T09:53:45.044Z,101763.63
2022-12-01T09:56:21.200Z,101754.53
2022-12-01T09:58:55.384Z,101758.69
2022-12-01T10:01:34.733Z,101757.44
2022-12-01T10:04:11.832Z,101758.84
2022-12-01T10:06:47.396Z,101759.75
2022-12-01T10:09:26.522Z,101749.97
2022-12-01T10:12:04.291Z,101755.13
2022-12-01T10:14:36.162Z,101753.47
2022-12-01T10:17:21.662Z,101756.34
2022-12-01T10:20:01.158Z,101746.69
2022-12-01T10:22:53.280Z,101748.38
2022-12-01T10:25:24.186Z,101741.41
2022-12-01T10:28:13.628Z,101751.38
2022-12-01T10:30:50.515Z,101736.78
2022-12-01T10:33:25.823Z,101743.50
2022-12-01T10:35:54.175Z,101737.13
2022-12-01T10:38:27.463Z,101736.78
2022-12-01T10:41:00.823Z,101734.31
2022-12-01T10:43:37.176Z,101733.38
2022-12-01T10:46:19.578Z,101731.97
2022-12-01T10:48:55.747Z,101732.50
2022-12-01T10:51:27.536Z,101733.91
2022-12-01T10:54:06.373Z,101738.19
2022-12-01T10:56:34.878Z,101737.84
2022-12-01T10:59:22.176Z,101738.91
2022-12-01T11:01:50.491Z,101740.19
2022-12-01T11:04:44.841Z,101733.97
2022-12-01T11:07:26.106Z,101732.38
2022-12-01T11:10:18.955Z,101733.72
2022-12-01T11:12:59.092Z,101729.50
2022-12-01T11:15:49.901Z,101722.38
2022-12-01T11:18:33.751Z,101726.75
2022-12-01T11:21:25.951Z,101730.75
2022-12-01T11:23:57.599Z,101729.75
2022-12-01T11:26:34.610Z,101725.84
2022-12-01T11:29:27.772Z,101727.09
2022-12-01T11:32:12.967Z,101719.16
2022-12-01T11:34:53.224Z,101720.97
2022-12-01T11:37:32.860Z,101725.59
2022-12-01T11:40:16.807Z,101718.28
2022-12-01T11:42:50.221Z,101720.75
2022-12-01T11:45:29.610Z,101724.31
2022-12-01T11:48:07.153Z,101730.09
2022-12-01T11:50:37.780Z,101732.66
2022-12-01T11:53:28.113Z,101727.19
2022-12-01T11:56:20.735Z,101725.66
2022-12-01T11:58:51.472Z,101723.00
2022-12-01T12:01:40.395Z,101728.63
2022-12-01T12:04:28.131Z,101728.44
2022-12-01T12:07:11.072Z,101715.47
2022-12-01T12:10:07.689Z,101713.69
2022-12-01T12:12:52.359Z,101709.34
2022-12-01T12:15:38.519Z,101704.44
2022-12-01T12:18:35.625Z,101695.75
2022-12-01T12:21:17.781Z,101698.22
2022-12-01T12:24:23.751Z,101699.38
2022-12-01T12:27:09.130Z,101701.16
2022-12-01T12:29:58.409Z,101692.34
2022-12-01T12:32:47.512Z,101688.59
2022-12-01T12:35:35.650Z,101689.69
2022-12-01T12:38:28.151Z,101692.69
2022-12-01T12:41:08.266Z,101689.78
2022-12-01T12:43:50.525Z,101689.84
2022-12-01T12:46:35.131Z,101689.31
2022-12-01T12:49:30.242Z,101687.03
2022-12-01T12:52:08.316Z,101688.69
2022-12-01T12:54:47.713Z,101681.06
2022-12-01T12:57:28.925Z,101682.22
2022-12-01T13:00:04.938Z,101679.56
2022-12-01T13:02:46.559Z,101678.47
2022-12-01T13:05:28.084Z,101684.34
2022-12-01T13:08:04.435Z,101680.44
2022-12-01T13:10:40.750Z,101682.38
2022-12-01T13:13:24.668Z,101672.41
2022-12-01T13:15:58.046Z,101669.84
2022-12-01T13:18:35.180Z,101669.66
2022-12-01T13:21:04.771Z,101671.53
2022-12-01T13:23:35.870Z,101664.56
2022-12-01T13:26:09.721Z,101663.91
2022-12-01T13:28:44.224Z,101653.56
2022-12-01T13:31:16.634Z,101651.44
2022-12-01T13:33:57.969Z,101657.56
2022-12-01T13:36:46.343Z,101648.22
2022-12-01T13:39:20.434Z,101650.72
2022-12-01T13:42:00.956Z,101654.09
2022-12-01T13:44:38.180Z,101651.75
2022-12-01T13:47:38.729Z,101650.56
2022-12-01T13:50:56.489Z,101650.91
2022-12-01T13:53:35.460Z,101642.00
2022-12-01T13:56:27.514Z,101641.84
2022-12-01T13:58:55.772Z,101644.53
2022-12-01T14:01:47.496Z,101645.91
2022-12-01T14:04:27.876Z,101646.50
2022-12-01T14:07:29.498Z,101653.81
2022-12-01T14:10:20.545Z,101648.94
2022-12-01T14:12:50.180Z,101663.09
2022-12-01T14:15:31.233Z,101659.44
2022-12-01T14:18:07.780Z,101660.50
2022-12-01T14:20:45.910Z,101668.88
2022-12-01T14:23:24.187Z,101670.22
2022-12-01T14:26:09.761Z,101665.03
2022-12-01T14:29:28.148Z,101669.59
2022-12-01T14:32:21.862Z,101669.03
2022-12-01T14:35:01.229Z,101670.13
2022-12-01T14:37:42.612Z,101675.28
2022-12-01T14:40:24.757Z,101673.97
2022-12-01T14:43:15.308Z,101676.09
2022-12-01T14:45:56.727Z,101671.88
2022-12-01T14:48:37.279Z,101673.69
2022-12-01T14:51:19.188Z,101673.31
2022-12-01T14:53:52.104Z,101673.50
2022-12-01T14:56:23.332Z,101675.19
2022-12-01T14:58:54.905Z,101674.03
2022-12-01T15:01:25.754Z,101677.03
2022-12-01T15:03:59.257Z,101676.28
2022-12-01T15:06:30.778Z,101683.00
2022-12-01T15:12:10.683Z,101687.88
2022-12-01T15:14:49.391Z,101684.41
2022-12-01T15:17:30.227Z,101674.75
2022-12-01T15:19:59.164Z,101676.75
2022-12-01T15:22:31.315Z,101683.63
2022-12-01T15:25:14.867Z,101681.84
2022-12-01T15:27:43.712Z,101677.81
2022-12-01T15:30:15.216Z,101675.72
2022-12-01T15:32:45.796Z,101668.78
2022-12-01T15:35:20.832Z,101668.56
2022-12-01T15:37:51.530Z,101664.22
2022-12-01T15:43:18.832Z,101657.72
2022-12-01T15:45:53.776Z,101655.13
2022-12-01T15:48:29.286Z,101656.72
2022-12-01T15:51:08.718Z,101656.91
2022-12-01T15:53:42.510Z,101656.44
2022-12-01T15:56:13.825Z,101656.69
2022-12-01T15:58:46.203Z,101657.06
2022-12-01T16:01:18.127Z,101654.81
2022-12-01T16:03:58.833Z,101656.44
2022-12-01T16:06:30.915Z,101666.31
2022-12-01T16:09:02.285Z,101673.59
2022-12-01T16:11:32.513Z,101667.69
2022-12-01T16:14:04.614Z,101667.50
2022-12-01T16:16:40.154Z,101665.50
2022-12-01T16:19:29.313Z,101658.59
2022-12-01T16:22:04.905Z,101658.97
2022-12-01T16:24:36.702Z,101663.94
2022-12-01T16:27:18.420Z,101669.63
2022-12-01T16:29:51.433Z,101664.31
2022-12-01T16:32:23.420Z,101673.03
2022-12-01T16:34:53.235Z,101668.47
2022-12-01T16:37:22.068Z,101671.88
2022-12-01T16:39:50.540Z,101673.66
2022-12-01T16:42:21.465Z,101675.25
2022-12-01T16:44:52.083Z,101680.22
2022-12-01T16:47:23.316Z,101676.97
2022-12-01T16:49:52.367Z,101685.47
2022-12-01T16:55:25.950Z,101679.81
2022-12-01T16:57:55.540Z,101683.31
2022-12-01T17:00:24.023Z,101687.94
2022-12-01T17:02:52.732Z,101684.50
2022-12-01T17:05:21.535Z,101696.84
2022-12-01T17:07:49.534Z,101697.03
2022-12-01T17:10:17.798Z,101688.28
2022-12-01T17:12:45.588Z,101693.09
2022-12-01T17:15:14.931Z,101686.44
2022-12-01T17:17:43.006Z,101684.75
2022-12-01T17:20:11.590Z,101690.09
2022-12-01T17:22:39.492Z,101691.91
2022-12-01T17:25:09.694Z,101702.81
2022-12-01T17:27:38.655Z,101704.97
2022-12-01T17:30:08.367Z,101702.22
2022-12-01T17:32:37.480Z,101706.34
2022-12-01T17:35:06.610Z,101698.81
2022-12-01T17:37:36.721Z,101718.63
2022-12-01T17:40:06.771Z,101714.47
2022-12-01T17:42:34.861Z,101713.47
2022-12-01T17:45:02.718Z,101712.47
2022-12-01T17:47:30.539Z,101710.28
2022-12-01T17:49:59.817Z,101711.59
2022-12-01T17:52:29.265Z,101720.00
2022-12-01T17:54:57.976Z,101707.34
2022-12-01T17:57:25.799Z,101712.53
2022-12-01T17:59:53.627Z,101714.69
2022-12-01T18:02:21.549Z,101712.88
2022-12-01T18:04:49.858Z,101716.34
2022-12-01T18:07:19.669Z,101714.25
2022-12-01T18:09:47.438Z,101721.50
2022-12-01T18:12:15.435Z,101718.22
2022-12-01T18:14:44.272Z,101716.44
2022-12-01T18:17:11.993Z,101718.78
2022-12-01T18:19:40.386Z,101724.53
2022-12-01T18:22:08.809Z,101725.72
2022-12-01T18:24:38.140Z,101733.47
2022-12-01T18:27:05.869Z,101727.94
2022-12-01T18:29:33.962Z,101728.69
2022-12-01T18:32:01.883Z,101723.97
2022-12-01T18:34:30.147Z,101729.81
2022-12-01T18:36:58.438Z,101726.81
2022-12-01T18:39:26.173Z,101726.31
2022-12-01T18:41:55.287Z,101724.53
2022-12-01T18:44:23.326Z,101725.56
2022-12-01T18:46:51.235Z,101713.69
2022-12-01T18:49:19.620Z,101721.19
2022-12-01T18:51:47.438Z,101720.59
2022-12-01T18:54:16.368Z,101726.25
2022-12-01T18:56:44.245Z,101723.97
2022-12-01T18:59:16.815Z,101709.34
2022-12-01T19:01:47.516Z,101721.81
2022-12-01T19:04:16.631Z,101718.25
2022-12-01T19:06:46.194Z,101712.91
2022-12-01T19:09:16.125Z,101715.25
2022-12-01T19:11:44.782Z,101712.31
2022-12-01T19:14:17.726Z,101706.88
2022-12-01T19:16:47.033Z,101705.78
2022-12-01T19:19:14.884Z,101707.34
2022-12-01T19:21:44.998Z,101709.50
2022-12-01T19:24:13.179Z,101709.84
2022-12-01T19:26:41.055Z,101708.06
2022-12-01T19:29:08.870Z,101709.44
2022-12-01T19:31:38.122Z,101706.81
2022-12-01T19:34:06.423Z,101707.78
2022-12-01T19:36:34.284Z,101702.03
2022-12-01T19:39:04.308Z,101703.81
2022-12-01T19:41:35.359Z,101707.09
2022-12-01T19:44:05.384Z,101703.91
2022-12-01T19:46:33.525Z,101702.28
2022-12-01T19:49:03.618Z,101705.78
2022-12-01T19:51:35.149Z,101700.44
2022-12-01T19:54:04.587Z,101706.00
2022-12-01T19:56:32.721Z,101700.06
2022-12-01T19:59:00.523Z,101702.06
2022-12-01T20:01:28.528Z,101703.81
2022-12-01T20:03:56.464Z,101703.22
2022-12-01T20:06:28.691Z,101705.56
2022-12-01T20:09:00.275Z,101701.06
2022-12-01T20:11:35.486Z,101696.44
2022-12-01T20:14:07.585Z,101703.72
2022-12-01T20:16:35.494Z,101702.06
2022-12-01T20:19:05.576Z,101705.41
2022-12-01T20:21:42.033Z,101702.44
2022-12-01T20:24:13.341Z,101705.38
2022-12-01T20:26:44.762Z,101711.38
2022-12-01T20:29:16.745Z,101721.19
2022-12-01T20:31:46.343Z,101722.84
2022-12-01T20:34:18.674Z,101721.41
2022-12-01T20:36:48.512Z,101714.88
2022-12-01T20:39:16.813Z,101715.16
2022-12-01T20:41:45.762Z,101713.47
2022-12-01T20:44:16.254Z,101709.56
2022-12-01T20:46:47.905Z,101720.47
2022-12-01T20:49:17.963Z,101720.13
2022-12-01T20:51:47.669Z,101713.97
2022-12-01T20:54:32.740Z,101712.88
2022-12-01T20:57:00.544Z,101709.31
2022-12-01T20:59:29.286Z,101704.16
2022-12-01T21:01:57.262Z,101703.97
2022-12-01T21:04:25.240Z,101708.91
2022-12-01T21:06:56.587Z,101706.94
2022-12-01T21:09:25.268Z,101704.59
2022-12-01T21:12:11.948Z,101702.75
2022-12-01T21:14:44.526Z,101696.09
2022-12-01T21:17:29.554Z,101694.03
2022-12-01T21:20:09.723Z,101690.66
2022-12-01T21:22:38.934Z,101682.56
2022-12-01T21:25:15.666Z,101690.84
2022-12-01T21:27:43.477Z,101689.28
2022-12-01T21:30:17.879Z,101677.00
2022-12-01T21:32:48.259Z,101678.59
2022-12-01T21:35:19.911Z,101682.38
2022-12-01T21:37:54.260Z,101674.94
2022-12-01T21:40:25.640Z,101679.88
2022-12-01T21:42:53.479Z,101678.13
2022-12-01T21:45:27.000Z,101679.16
2022-12-01T21:48:06.126Z,101676.13
2022-12-01T21:50:33.886Z,101674.97
2022-12-01T21:53:12.939Z,101682.50
2022-12-01T21:55:43.582Z,101669.78
2022-12-01T21:58:27.298Z,101670.88
2022-12-01T22:00:57.662Z,101674.72
2022-12-01T22:03:31.242Z,101671.53
2022-12-01T22:06:28.699Z,101668.25
2022-12-01T22:08:59.688Z,101666.41
2022-12-01T22:11:29.670Z,101664.34
2022-12-01T22:14:10.892Z,101663.47
2022-12-01T22:16:43.259Z,101662.00
2022-12-01T22:19:29.743Z,101657.03
2022-12-01T22:22:20.964Z,101653.97
2022-12-01T22:24:52.489Z,101652.69
2022-12-01T22:27:31.489Z,101647.16
2022-12-01T22:30:10.698Z,101648.34
2022-12-01T22:32:52.149Z,101645.09
2022-12-01T22:35:34.288Z,101640.63
2022-12-01T22:38:30.916Z,101652.09
2022-12-01T22:41:05.270Z,101650.13
2022-12-01T22:43:44.028Z,101639.44
2022-12-01T22:46:31.658Z,101640.41
2022-12-01T22:49:08.304Z,101646.53
2022-12-01T22:51:42.342Z,101649.34
2022-12-01T22:54:31.442Z,101644.81
2022-12-01T22:57:25.232Z,101646.19
2022-12-01T22:59:55.130Z,101646.69
2022-12-01T23:02:29.258Z,101641.06
2022-12-01T23:05:00.783Z,101647.38
2022-12-01T23:07:33.126Z,101641.03
2022-12-01T23:10:16.654Z,101639.63
2022-12-01T23:12:48.476Z,101634.69
2022-12-01T23:15:27.105Z,101637.84
2022-12-01T23:17:55.257Z,101638.28
2022-12-01T23:20:31.886Z,101632.53
2022-12-01T23:23:03.064Z,101633.53
2022-12-01T23:25:33.864Z,101632.94
2022-12-01T23:28:06.773Z,101638.06
2022-12-01T23:30:37.219Z,101633.53
2022-12-01T23:33:21.151Z,101627.31
2022-12-01T23:35:55.973Z,101618.41
2022-12-01T23:38:29.178Z,101616.69
2022-12-01T23:41:04.218Z,101618.97
2022-12-01T23:43:39.944Z,101621.47
2022-12-01T23:46:12.465Z,101621.25
2022-12-01T23:48:44.658Z,101620.16
2022-12-01T23:51:19.973Z,101621.06
2022-12-01T23:53:48.826Z,101616.53
2022-12-01T23:56:21.139Z,101607.84
2022-12-01T23:58:51.469Z,101604.88
